sensor_id;sensor_type;location;lat;lon;timestamp;temperature;humidity
25512;DHT22;13414;44.534;18.700;2024-02-04T00:01:23;3.80;1.00
25512;DHT22;13414;44.534;18.700;2024-02-04T00:03:50;3.80;99.90
25512;DHT22;13414;44.534;18.700;2024-02-04T00:06:18;3.80;99.90
25512;DHT22;13414;44.534;18.700;2024-02-04T00:08:47;3.80;1.00
25512;DHT22;13414;44.534;18.700;2024-02-04T00:11:14;3.80;99.90
25512;DHT22;13414;44.534;18.700;2024-02-04T00:13:42;3.80;99.90
25512;DHT22;13414;44.534;18.700;2024-02-04T00:16:10;3.80;10.10
25512;DHT22;13414;44.534;18.700;2024-02-04T00:18:38;3.90;99.90
25512;DHT22;13414;44.534;18.700;2024-02-04T00:21:06;3.90;1.00
25512;DHT22;13414;44.534;18.700;2024-02-04T00:23:33;4.00;1.00
25512;DHT22;13414;44.534;18.700;2024-02-04T00:26:02;4.00;1.00
25512;DHT22;13414;44.534;18.700;2024-02-04T00:28:30;4.00;1.00
25512;DHT22;13414;44.534;18.700;2024-02-04T00:30:57;3.80;1.00
25512;DHT22;13414;44.534;18.700;2024-02-04T00:33:25;3.70;46.50
25512;DHT22;13414;44.534;18.700;2024-02-04T00:35:54;3.70;99.90
25512;DHT22;13414;44.534;18.700;2024-02-04T00:38:21;3.60;99.90
25512;DHT22;13414;44.534;18.700;2024-02-04T00:40:48;3.60;1.00
25512;DHT22;13414;44.534;18.700;2024-02-04T00:43:19;3.60;1.00
25512;DHT22;13414;44.534;18.700;2024-02-04T00:45:49;3.70;1.00
25512;DHT22;13414;44.534;18.700;2024-02-04T00:48:17;3.60;1.00
25512;DHT22;13414;44.534;18.700;2024-02-04T00:50:44;3.70;1.00
25512;DHT22;13414;44.534;18.700;2024-02-04T00:53:12;3.60;1.00
25512;DHT22;13414;44.534;18.700;2024-02-04T00:55:39;3.60;1.00
25512;DHT22;13414;44.534;18.700;2024-02-04T00:58:07;3.60;1.00
25512;DHT22;13414;44.534;18.700;2024-02-04T01:00:36;3.70;1.00
25512;DHT22;13414;44.534;18.700;2024-02-04T01:03:03;3.80;1.00
25512;DHT22;13414;44.534;18.700;2024-02-04T01:05:31;3.90;99.90
25512;DHT22;13414;44.534;18.700;2024-02-04T01:07:58;3.90;78.70
25512;DHT22;13414;44.534;18.700;2024-02-04T01:10:26;3.90;1.00
25512;DHT22;13414;44.534;18.700;2024-02-04T01:12:54;3.90;1.00
25512;DHT22;13414;44.534;18.700;2024-02-04T01:15:21;4.00;99.90
25512;DHT22;13414;44.534;18.700;2024-02-04T01:17:50;3.90;99.90
25512;DHT22;13414;44.534;18.700;2024-02-04T01:20:19;3.90;99.90
25512;DHT22;13414;44.534;18.700;2024-02-04T01:22:46;3.80;99.90
25512;DHT22;13414;44.534;18.700;2024-02-04T01:25:14;3.90;1.00
25512;DHT22;13414;44.534;18.700;2024-02-04T01:27:42;3.90;99.90
25512;DHT22;13414;44.534;18.700;2024-02-04T01:30:12;4.00;99.90
25512;DHT22;13414;44.534;18.700;2024-02-04T01:32:39;4.10;99.90
25512;DHT22;13414;44.534;18.700;2024-02-04T01:35:09;4.10;1.00
25512;DHT22;13414;44.534;18.700;2024-02-04T01:37:37;4.10;1.00
25512;DHT22;13414;44.534;18.700;2024-02-04T01:40:06;4.10;1.00
25512;DHT22;13414;44.534;18.700;2024-02-04T01:42:34;4.10;1.00
25512;DHT22;13414;44.534;18.700;2024-02-04T01:45:02;4.20;1.00
25512;DHT22;13414;44.534;18.700;2024-02-04T01:47:30;4.20;1.00
25512;DHT22;13414;44.534;18.700;2024-02-04T01:49:57;4.20;1.00
25512;DHT22;13414;44.534;18.700;2024-02-04T01:52:27;4.30;1.00
25512;DHT22;13414;44.534;18.700;2024-02-04T01:54:54;4.40;1.00
25512;DHT22;13414;44.534;18.700;2024-02-04T01:57:22;4.50;1.00
25512;DHT22;13414;44.534;18.700;2024-02-04T01:59:52;4.40;1.00
25512;DHT22;13414;44.534;18.700;2024-02-04T02:02:22;4.40;1.00
25512;DHT22;13414;44.534;18.700;2024-02-04T02:04:50;4.40;1.00
25512;DHT22;13414;44.534;18.700;2024-02-04T02:07:18;4.30;1.00
25512;DHT22;13414;44.534;18.700;2024-02-04T02:09:48;4.10;1.00
25512;DHT22;13414;44.534;18.700;2024-02-04T02:12:19;4.10;1.00
25512;DHT22;13414;44.534;18.700;2024-02-04T02:14:56;4.20;99.90
25512;DHT22;13414;44.534;18.700;2024-02-04T02:17:30;4.20;1.00
25512;DHT22;13414;44.534;18.700;2024-02-04T02:20:02;4.20;1.00
25512;DHT22;13414;44.534;18.700;2024-02-04T02:22:41;4.20;1.00
25512;DHT22;13414;44.534;18.700;2024-02-04T02:25:12;4.10;1.00
25512;DHT22;13414;44.534;18.700;2024-02-04T02:27:50;4.20;99.90
25512;DHT22;13414;44.534;18.700;2024-02-04T02:30:18;4.20;99.90
25512;DHT22;13414;44.534;18.700;2024-02-04T02:32:49;4.30;1.00
25512;DHT22;13414;44.534;18.700;2024-02-04T02:35:17;4.20;1.00
25512;DHT22;13414;44.534;18.700;2024-02-04T02:37:52;4.10;99.90
25512;DHT22;13414;44.534;18.700;2024-02-04T02:40:27;4.10;1.00
25512;DHT22;13414;44.534;18.700;2024-02-04T02:43:02;4.10;1.00
25512;DHT22;13414;44.534;18.700;2024-02-04T02:45:30;4.20;99.90
25512;DHT22;13414;44.534;18.700;2024-02-04T02:47:58;4.20;99.90
25512;DHT22;13414;44.534;18.700;2024-02-04T02:50:26;4.20;1.00
25512;DHT22;13414;44.534;18.700;2024-02-04T02:52:58;4.30;99.90
25512;DHT22;13414;44.534;18.700;2024-02-04T02:55:28;4.30;99.90
25512;DHT22;13414;44.534;18.700;2024-02-04T02:57:55;4.40;99.90
25512;DHT22;13414;44.534;18.700;2024-02-04T03:00:23;4.50;99.90
25512;DHT22;13414;44.534;18.700;2024-02-04T03:02:51;4.50;1.00
25512;DHT22;13414;44.534;18.700;2024-02-04T03:05:18;4.50;1.00
25512;DHT22;13414;44.534;18.700;2024-02-04T03:07:46;4.50;1.00
25512;DHT22;13414;44.534;18.700;2024-02-04T03:10:14;4.60;1.00
25512;DHT22;13414;44.534;18.700;2024-02-04T03:12:43;4.50;1.00
25512;DHT22;13414;44.534;18.700;2024-02-04T03:15:11;4.50;1.00
25512;DHT22;13414;44.534;18.700;2024-02-04T03:17:38;4.40;1.00
25512;DHT22;13414;44.534;18.700;2024-02-04T03:20:07;4.40;1.00
25512;DHT22;13414;44.534;18.700;2024-02-04T03:22:34;4.40;1.00
25512;DHT22;13414;44.534;18.700;2024-02-04T03:25:05;4.30;1.00
25512;DHT22;13414;44.534;18.700;2024-02-04T03:27:33;4.40;1.00
25512;DHT22;13414;44.534;18.700;2024-02-04T03:30:03;4.50;1.00
25512;DHT22;13414;44.534;18.700;2024-02-04T03:32:31;4.40;1.00
25512;DHT22;13414;44.534;18.700;2024-02-04T03:35:00;4.40;1.00
25512;DHT22;13414;44.534;18.700;2024-02-04T03:37:28;4.40;1.00
25512;DHT22;13414;44.534;18.700;2024-02-04T03:39:56;4.40;1.00
25512;DHT22;13414;44.534;18.700;2024-02-04T03:42:24;4.40;1.00
25512;DHT22;13414;44.534;18.700;2024-02-04T03:44:54;4.40;1.00
25512;DHT22;13414;44.534;18.700;2024-02-04T03:47:23;4.40;1.00
25512;DHT22;13414;44.534;18.700;2024-02-04T03:49:51;4.40;1.00
25512;DHT22;13414;44.534;18.700;2024-02-04T03:52:19;4.20;1.00
25512;DHT22;13414;44.534;18.700;2024-02-04T03:55:06;4.20;99.90
25512;DHT22;13414;44.534;18.700;2024-02-04T03:57:41;4.20;99.90
25512;DHT22;13414;44.534;18.700;2024-02-04T04:00:10;4.10;99.90
25512;DHT22;13414;44.534;18.700;2024-02-04T04:02:39;4.00;1.00
25512;DHT22;13414;44.534;18.700;2024-02-04T04:05:10;4.00;1.00
25512;DHT22;13414;44.534;18.700;2024-02-04T04:07:40;4.00;1.00
25512;DHT22;13414;44.534;18.700;2024-02-04T04:10:08;3.90;1.00
25512;DHT22;13414;44.534;18.700;2024-02-04T04:12:36;3.80;1.00
25512;DHT22;13414;44.534;18.700;2024-02-04T04:15:04;3.70;38.10
25512;DHT22;13414;44.534;18.700;2024-02-04T04:17:32;3.70;99.90
25512;DHT22;13414;44.534;18.700;2024-02-04T04:20:01;3.70;1.00
25512;DHT22;13414;44.534;18.700;2024-02-04T04:22:29;3.80;1.00
25512;DHT22;13414;44.534;18.700;2024-02-04T04:24:57;3.80;99.90
25512;DHT22;13414;44.534;18.700;2024-02-04T04:27:24;3.70;1.00
25512;DHT22;13414;44.534;18.700;2024-02-04T04:29:52;3.70;99.90
25512;DHT22;13414;44.534;18.700;2024-02-04T04:32:19;3.70;1.00
25512;DHT22;13414;44.534;18.700;2024-02-04T04:34:47;3.70;1.00
25512;DHT22;13414;44.534;18.700;2024-02-04T04:37:16;3.70;1.00
25512;DHT22;13414;44.534;18.700;2024-02-04T04:39:44;3.70;1.00
25512;DHT22;13414;44.534;18.700;2024-02-04T04:42:12;3.70;99.90
25512;DHT22;13414;44.534;18.700;2024-02-04T04:44:40;3.70;1.00
25512;DHT22;13414;44.534;18.700;2024-02-04T04:47:07;3.70;1.00
25512;DHT22;13414;44.534;18.700;2024-02-04T04:49:35;3.60;1.00
25512;DHT22;13414;44.534;18.700;2024-02-04T04:52:04;3.60;99.90
25512;DHT22;13414;44.534;18.700;2024-02-04T04:54:34;3.60;99.90
25512;DHT22;13414;44.534;18.700;2024-02-04T04:57:02;3.40;99.90
25512;DHT22;13414;44.534;18.700;2024-02-04T04:59:29;3.50;1.00
25512;DHT22;13414;44.534;18.700;2024-02-04T05:01:57;3.40;99.90
25512;DHT22;13414;44.534;18.700;2024-02-04T05:04:25;3.40;99.90
25512;DHT22;13414;44.534;18.700;2024-02-04T05:06:52;3.40;99.90
25512;DHT22;13414;44.534;18.700;2024-02-04T05:09:20;3.30;1.00
25512;DHT22;13414;44.534;18.700;2024-02-04T05:11:49;3.30;1.00
25512;DHT22;13414;44.534;18.700;2024-02-04T05:14:17;3.40;99.90
25512;DHT22;13414;44.534;18.700;2024-02-04T05:16:46;3.40;1.00
25512;DHT22;13414;44.534;18.700;2024-02-04T05:19:14;3.40;1.00
25512;DHT22;13414;44.534;18.700;2024-02-04T05:21:42;3.40;94.70
25512;DHT22;13414;44.534;18.700;2024-02-04T05:24:10;3.30;1.00
25512;DHT22;13414;44.534;18.700;2024-02-04T05:26:37;3.20;1.00
25512;DHT22;13414;44.534;18.700;2024-02-04T05:29:06;3.10;99.90
25512;DHT22;13414;44.534;18.700;2024-02-04T05:31:39;3.00;99.90
25512;DHT22;13414;44.534;18.700;2024-02-04T05:34:08;2.90;99.90
25512;DHT22;13414;44.534;18.700;2024-02-04T05:36:35;3.00;1.00
25512;DHT22;13414;44.534;18.700;2024-02-04T05:39:10;3.20;1.00
25512;DHT22;13414;44.534;18.700;2024-02-04T05:41:38;3.20;1.00
25512;DHT22;13414;44.534;18.700;2024-02-04T05:44:08;3.30;99.90
25512;DHT22;13414;44.534;18.700;2024-02-04T05:46:36;3.30;1.00
25512;DHT22;13414;44.534;18.700;2024-02-04T05:49:03;3.30;99.90
25512;DHT22;13414;44.534;18.700;2024-02-04T05:51:32;3.30;1.00
25512;DHT22;13414;44.534;18.700;2024-02-04T05:54:00;3.20;99.90
25512;DHT22;13414;44.534;18.700;2024-02-04T05:56:27;3.10;1.00
25512;DHT22;13414;44.534;18.700;2024-02-04T05:58:55;3.20;1.00
25512;DHT22;13414;44.534;18.700;2024-02-04T06:01:24;3.20;99.90
25512;DHT22;13414;44.534;18.700;2024-02-04T06:03:52;3.20;1.00
25512;DHT22;13414;44.534;18.700;2024-02-04T06:06:19;3.10;1.00
25512;DHT22;13414;44.534;18.700;2024-02-04T06:08:47;3.10;1.00
25512;DHT22;13414;44.534;18.700;2024-02-04T06:11:15;3.10;99.90
25512;DHT22;13414;44.534;18.700;2024-02-04T06:13:44;3.10;1.00
25512;DHT22;13414;44.534;18.700;2024-02-04T06:16:13;3.00;1.00
25512;DHT22;13414;44.534;18.700;2024-02-04T06:18:42;3.00;1.00
25512;DHT22;13414;44.534;18.700;2024-02-04T06:21:10;3.00;21.90
25512;DHT22;13414;44.534;18.700;2024-02-04T06:23:38;2.80;1.00
25512;DHT22;13414;44.534;18.700;2024-02-04T06:26:06;2.80;1.00
25512;DHT22;13414;44.534;18.700;2024-02-04T06:28:35;2.90;1.00
25512;DHT22;13414;44.534;18.700;2024-02-04T06:31:08;2.90;1.00
25512;DHT22;13414;44.534;18.700;2024-02-04T06:33:36;3.00;1.00
25512;DHT22;13414;44.534;18.700;2024-02-04T06:36:10;3.00;1.00
25512;DHT22;13414;44.534;18.700;2024-02-04T06:38:38;2.90;1.00
25512;DHT22;13414;44.534;18.700;2024-02-04T06:41:06;2.90;80.20
25512;DHT22;13414;44.534;18.700;2024-02-04T06:43:33;2.90;99.90
25512;DHT22;13414;44.534;18.700;2024-02-04T06:46:04;3.00;1.00
25512;DHT22;13414;44.534;18.700;2024-02-04T06:48:31;3.00;99.90
25512;DHT22;13414;44.534;18.700;2024-02-04T06:50:59;3.00;1.00
25512;DHT22;13414;44.534;18.700;2024-02-04T06:53:29;3.10;99.90
25512;DHT22;13414;44.534;18.700;2024-02-04T06:55:56;3.10;1.00
25512;DHT22;13414;44.534;18.700;2024-02-04T06:58:26;2.90;1.00
25512;DHT22;13414;44.534;18.700;2024-02-04T07:00:54;3.10;99.90
25512;DHT22;13414;44.534;18.700;2024-02-04T07:03:22;3.20;99.90
25512;DHT22;13414;44.534;18.700;2024-02-04T07:05:50;3.20;1.00
25512;DHT22;13414;44.534;18.700;2024-02-04T07:08:17;3.50;1.00
25512;DHT22;13414;44.534;18.700;2024-02-04T07:10:46;3.70;99.90
25512;DHT22;13414;44.534;18.700;2024-02-04T07:13:14;3.90;1.00
25512;DHT22;13414;44.534;18.700;2024-02-04T07:15:42;3.90;99.90
25512;DHT22;13414;44.534;18.700;2024-02-04T07:18:10;4.00;99.90
25512;DHT22;13414;44.534;18.700;2024-02-04T07:20:38;4.40;1.00
25512;DHT22;13414;44.534;18.700;2024-02-04T07:23:05;4.50;99.90
25512;DHT22;13414;44.534;18.700;2024-02-04T07:25:34;4.70;99.90
25512;DHT22;13414;44.534;18.700;2024-02-04T07:28:04;4.90;1.00
25512;DHT22;13414;44.534;18.700;2024-02-04T07:30:34;5.10;1.00
25512;DHT22;13414;44.534;18.700;2024-02-04T07:33:19;5.10;1.00
25512;DHT22;13414;44.534;18.700;2024-02-04T07:35:50;5.40;1.00
25512;DHT22;13414;44.534;18.700;2024-02-04T07:38:17;5.70;99.90
25512;DHT22;13414;44.534;18.700;2024-02-04T07:40:47;5.90;1.00
25512;DHT22;13414;44.534;18.700;2024-02-04T07:43:18;6.10;1.00
25512;DHT22;13414;44.534;18.700;2024-02-04T07:45:54;6.30;1.00
25512;DHT22;13414;44.534;18.700;2024-02-04T07:48:22;6.60;1.00
25512;DHT22;13414;44.534;18.700;2024-02-04T07:50:50;6.80;1.00
25512;DHT22;13414;44.534;18.700;2024-02-04T07:53:19;7.00;99.90
25512;DHT22;13414;44.534;18.700;2024-02-04T07:55:49;7.00;99.90
25512;DHT22;13414;44.534;18.700;2024-02-04T07:58:29;7.00;99.90
25512;DHT22;13414;44.534;18.700;2024-02-04T08:00:57;7.30;99.90
25512;DHT22;13414;44.534;18.700;2024-02-04T08:03:24;7.60;99.90
25512;DHT22;13414;44.534;18.700;2024-02-04T08:05:52;7.70;50.20
25512;DHT22;13414;44.534;18.700;2024-02-04T08:08:18;7.90;50.00
25512;DHT22;13414;44.534;18.700;2024-02-04T08:10:46;8.00;18.80
25512;DHT22;13414;44.534;18.700;2024-02-04T08:13:14;8.10;1.00
25512;DHT22;13414;44.534;18.700;2024-02-04T08:15:45;8.10;1.00
25512;DHT22;13414;44.534;18.700;2024-02-04T08:18:13;8.10;8.50
25512;DHT22;13414;44.534;18.700;2024-02-04T08:20:44;8.20;20.10
25512;DHT22;13414;44.534;18.700;2024-02-04T08:23:11;8.30;1.00
25512;DHT22;13414;44.534;18.700;2024-02-04T08:25:39;8.50;1.00
25512;DHT22;13414;44.534;18.700;2024-02-04T08:28:06;8.60;1.00
25512;DHT22;13414;44.534;18.700;2024-02-04T08:30:34;8.80;1.00
25512;DHT22;13414;44.534;18.700;2024-02-04T08:33:03;8.90;1.00
25512;DHT22;13414;44.534;18.700;2024-02-04T08:35:31;9.20;1.00
25512;DHT22;13414;44.534;18.700;2024-02-04T08:37:59;9.30;1.00
25512;DHT22;13414;44.534;18.700;2024-02-04T08:40:28;9.60;1.00
25512;DHT22;13414;44.534;18.700;2024-02-04T08:43:07;9.80;1.00
25512;DHT22;13414;44.534;18.700;2024-02-04T08:45:38;9.90;1.00
25512;DHT22;13414;44.534;18.700;2024-02-04T08:48:07;10.10;1.00
25512;DHT22;13414;44.534;18.700;2024-02-04T08:50:35;10.40;1.00
25512;DHT22;13414;44.534;18.700;2024-02-04T08:53:04;10.60;1.00
25512;DHT22;13414;44.534;18.700;2024-02-04T08:55:31;10.80;1.00
25512;DHT22;13414;44.534;18.700;2024-02-04T08:57:59;10.90;1.00
25512;DHT22;13414;44.534;18.700;2024-02-04T09:00:26;10.90;1.00
25512;DHT22;13414;44.534;18.700;2024-02-04T09:02:54;10.80;1.00
25512;DHT22;13414;44.534;18.700;2024-02-04T09:05:25;10.90;1.00
25512;DHT22;13414;44.534;18.700;2024-02-04T09:07:53;10.80;1.00
25512;DHT22;13414;44.534;18.700;2024-02-04T09:10:26;10.70;1.00
25512;DHT22;13414;44.534;18.700;2024-02-04T09:12:57;10.60;1.00
25512;DHT22;13414;44.534;18.700;2024-02-04T09:15:25;10.50;1.00
25512;DHT22;13414;44.534;18.700;2024-02-04T09:17:58;10.60;1.00
25512;DHT22;13414;44.534;18.700;2024-02-04T09:20:29;10.60;1.00
25512;DHT22;13414;44.534;18.700;2024-02-04T09:22:56;10.60;1.00
25512;DHT22;13414;44.534;18.700;2024-02-04T09:25:24;10.70;1.00
25512;DHT22;13414;44.534;18.700;2024-02-04T09:27:52;10.70;1.00
25512;DHT22;13414;44.534;18.700;2024-02-04T09:30:20;10.60;1.00
25512;DHT22;13414;44.534;18.700;2024-02-04T09:32:48;10.70;1.00
25512;DHT22;13414;44.534;18.700;2024-02-04T09:35:16;10.80;1.00
25512;DHT22;13414;44.534;18.700;2024-02-04T09:37:45;10.80;1.00
25512;DHT22;13414;44.534;18.700;2024-02-04T09:40:13;10.90;1.00
25512;DHT22;13414;44.534;18.700;2024-02-04T09:42:41;10.90;1.00
25512;DHT22;13414;44.534;18.700;2024-02-04T09:45:11;11.00;1.00
25512;DHT22;13414;44.534;18.700;2024-02-04T09:47:42;11.10;1.00
25512;DHT22;13414;44.534;18.700;2024-02-04T09:50:12;11.30;1.00
25512;DHT22;13414;44.534;18.700;2024-02-04T09:52:40;11.40;1.00
25512;DHT22;13414;44.534;18.700;2024-02-04T09:55:13;11.50;1.00
25512;DHT22;13414;44.534;18.700;2024-02-04T09:57:44;11.70;1.00
25512;DHT22;13414;44.534;18.700;2024-02-04T10:00:13;11.90;1.00
25512;DHT22;13414;44.534;18.700;2024-02-04T10:02:41;12.10;1.00
25512;DHT22;13414;44.534;18.700;2024-02-04T10:05:09;12.30;1.00
25512;DHT22;13414;44.534;18.700;2024-02-04T10:07:38;12.50;1.00
25512;DHT22;13414;44.534;18.700;2024-02-04T10:10:07;12.90;1.00
25512;DHT22;13414;44.534;18.700;2024-02-04T10:12:37;13.10;1.00
25512;DHT22;13414;44.534;18.700;2024-02-04T10:15:08;13.40;1.00
25512;DHT22;13414;44.534;18.700;2024-02-04T10:17:36;13.60;1.00
25512;DHT22;13414;44.534;18.700;2024-02-04T10:20:04;13.70;1.00
25512;DHT22;13414;44.534;18.700;2024-02-04T10:22:32;13.70;1.00
25512;DHT22;13414;44.534;18.700;2024-02-04T10:25:11;13.80;1.00
25512;DHT22;13414;44.534;18.700;2024-02-04T10:27:43;13.80;1.00
25512;DHT22;13414;44.534;18.700;2024-02-04T10:30:13;13.80;1.00
25512;DHT22;13414;44.534;18.700;2024-02-04T10:32:41;13.80;1.00
25512;DHT22;13414;44.534;18.700;2024-02-04T10:35:14;13.90;1.00
25512;DHT22;13414;44.534;18.700;2024-02-04T10:37:47;13.90;1.00
25512;DHT22;13414;44.534;18.700;2024-02-04T10:40:15;14.10;1.00
25512;DHT22;13414;44.534;18.700;2024-02-04T10:42:45;14.30;1.00
25512;DHT22;13414;44.534;18.700;2024-02-04T10:45:17;14.50;1.00
25512;DHT22;13414;44.534;18.700;2024-02-04T10:47:52;14.70;1.00
25512;DHT22;13414;44.534;18.700;2024-02-04T10:50:24;15.00;1.00
25512;DHT22;13414;44.534;18.700;2024-02-04T10:53:05;15.40;1.00
25512;DHT22;13414;44.534;18.700;2024-02-04T10:55:38;15.70;1.00
25512;DHT22;13414;44.534;18.700;2024-02-04T10:58:12;15.90;1.00
25512;DHT22;13414;44.534;18.700;2024-02-04T11:00:41;15.80;1.00
25512;DHT22;13414;44.534;18.700;2024-02-04T11:03:09;15.60;1.00
25512;DHT22;13414;44.534;18.700;2024-02-04T11:05:38;15.40;1.00
25512;DHT22;13414;44.534;18.700;2024-02-04T11:08:42;15.40;1.00
25512;DHT22;13414;44.534;18.700;2024-02-04T11:11:27;15.50;1.00
25512;DHT22;13414;44.534;18.700;2024-02-04T11:14:21;15.60;1.00
25512;DHT22;13414;44.534;18.700;2024-02-04T11:17:15;15.60;1.00
25512;DHT22;13414;44.534;18.700;2024-02-04T11:19:56;15.80;1.00
25512;DHT22;13414;44.534;18.700;2024-02-04T11:22:48;15.80;1.00
25512;DHT22;13414;44.534;18.700;2024-02-04T11:25:42;15.80;1.00
25512;DHT22;13414;44.534;18.700;2024-02-04T11:28:11;15.90;1.00
25512;DHT22;13414;44.534;18.700;2024-02-04T11:30:43;15.90;1.00
25512;DHT22;13414;44.534;18.700;2024-02-04T11:33:21;15.90;1.00
25512;DHT22;13414;44.534;18.700;2024-02-04T11:35:59;15.80;1.00
25512;DHT22;13414;44.534;18.700;2024-02-04T11:38:31;15.70;1.00
25512;DHT22;13414;44.534;18.700;2024-02-04T11:40:58;15.60;1.00
25512;DHT22;13414;44.534;18.700;2024-02-04T11:43:27;15.60;1.00
25512;DHT22;13414;44.534;18.700;2024-02-04T11:45:57;15.70;1.00
25512;DHT22;13414;44.534;18.700;2024-02-04T11:48:29;15.70;1.00
25512;DHT22;13414;44.534;18.700;2024-02-04T11:50:58;15.80;1.00
25512;DHT22;13414;44.534;18.700;2024-02-04T11:53:27;15.80;1.00
25512;DHT22;13414;44.534;18.700;2024-02-04T11:55:58;15.80;1.00
25512;DHT22;13414;44.534;18.700;2024-02-04T11:58:29;15.90;1.00
25512;DHT22;13414;44.534;18.700;2024-02-04T12:00:59;15.90;1.00
25512;DHT22;13414;44.534;18.700;2024-02-04T12:03:29;15.90;1.00
25512;DHT22;13414;44.534;18.700;2024-02-04T12:05:57;15.90;1.00
25512;DHT22;13414;44.534;18.700;2024-02-04T12:08:27;15.90;1.00
25512;DHT22;13414;44.534;18.700;2024-02-04T12:10:55;15.90;1.00
25512;DHT22;13414;44.534;18.700;2024-02-04T12:13:27;15.90;1.00
25512;DHT22;13414;44.534;18.700;2024-02-04T12:15:55;15.90;1.00
25512;DHT22;13414;44.534;18.700;2024-02-04T12:18:24;15.90;1.00
25512;DHT22;13414;44.534;18.700;2024-02-04T12:20:52;16.00;1.00
25512;DHT22;13414;44.534;18.700;2024-02-04T12:23:23;16.00;1.00
25512;DHT22;13414;44.534;18.700;2024-02-04T12:25:53;16.00;1.00
25512;DHT22;13414;44.534;18.700;2024-02-04T12:28:46;16.00;1.00
25512;DHT22;13414;44.534;18.700;2024-02-04T12:31:37;16.10;1.00
25512;DHT22;13414;44.534;18.700;2024-02-04T12:34:12;16.10;1.00
25512;DHT22;13414;44.534;18.700;2024-02-04T12:36:45;16.00;1.00
25512;DHT22;13414;44.534;18.700;2024-02-04T12:39:12;16.00;1.00
25512;DHT22;13414;44.534;18.700;2024-02-04T12:41:40;16.10;1.00
25512;DHT22;13414;44.534;18.700;2024-02-04T12:44:08;16.10;1.00
25512;DHT22;13414;44.534;18.700;2024-02-04T12:46:35;16.10;1.00
25512;DHT22;13414;44.534;18.700;2024-02-04T12:49:03;16.10;1.00
25512;DHT22;13414;44.534;18.700;2024-02-04T12:51:32;16.20;1.00
25512;DHT22;13414;44.534;18.700;2024-02-04T12:54:05;16.20;1.00
25512;DHT22;13414;44.534;18.700;2024-02-04T12:56:44;16.20;1.00
25512;DHT22;13414;44.534;18.700;2024-02-04T12:59:47;16.20;1.00
25512;DHT22;13414;44.534;18.700;2024-02-04T13:02:16;16.30;1.00
25512;DHT22;13414;44.534;18.700;2024-02-04T13:04:52;16.30;1.00
25512;DHT22;13414;44.534;18.700;2024-02-04T13:07:23;16.30;1.00
25512;DHT22;13414;44.534;18.700;2024-02-04T13:09:58;16.40;1.00
25512;DHT22;13414;44.534;18.700;2024-02-04T13:12:26;16.40;1.00
25512;DHT22;13414;44.534;18.700;2024-02-04T13:14:53;16.50;1.00
25512;DHT22;13414;44.534;18.700;2024-02-04T13:17:21;16.50;1.00
25512;DHT22;13414;44.534;18.700;2024-02-04T13:19:49;16.50;1.00
25512;DHT22;13414;44.534;18.700;2024-02-04T13:22:17;16.50;1.00
25512;DHT22;13414;44.534;18.700;2024-02-04T13:24:45;16.60;1.00
25512;DHT22;13414;44.534;18.700;2024-02-04T13:27:13;16.60;1.00
25512;DHT22;13414;44.534;18.700;2024-02-04T13:29:47;16.60;1.00
25512;DHT22;13414;44.534;18.700;2024-02-04T13:32:23;16.60;1.00
25512;DHT22;13414;44.534;18.700;2024-02-04T13:34:50;16.80;1.00
25512;DHT22;13414;44.534;18.700;2024-02-04T13:37:18;16.90;1.00
25512;DHT22;13414;44.534;18.700;2024-02-04T13:39:47;17.00;1.00
25512;DHT22;13414;44.534;18.700;2024-02-04T13:42:14;17.00;1.00
25512;DHT22;13414;44.534;18.700;2024-02-04T13:44:42;17.00;1.00
25512;DHT22;13414;44.534;18.700;2024-02-04T13:47:10;17.00;1.00
25512;DHT22;13414;44.534;18.700;2024-02-04T13:49:37;17.10;1.00
25512;DHT22;13414;44.534;18.700;2024-02-04T13:52:06;17.00;1.00
25512;DHT22;13414;44.534;18.700;2024-02-04T13:54:35;17.00;1.00
25512;DHT22;13414;44.534;18.700;2024-02-04T13:57:04;17.10;1.00
25512;DHT22;13414;44.534;18.700;2024-02-04T13:59:32;17.10;1.00
25512;DHT22;13414;44.534;18.700;2024-02-04T14:01:59;17.10;1.00
25512;DHT22;13414;44.534;18.700;2024-02-04T14:04:27;17.00;1.00
25512;DHT22;13414;44.534;18.700;2024-02-04T14:06:55;17.00;1.00
25512;DHT22;13414;44.534;18.700;2024-02-04T14:09:23;17.00;1.00
25512;DHT22;13414;44.534;18.700;2024-02-04T14:11:51;17.10;1.00
25512;DHT22;13414;44.534;18.700;2024-02-04T14:14:23;17.10;1.00
25512;DHT22;13414;44.534;18.700;2024-02-04T14:16:51;17.20;1.00
25512;DHT22;13414;44.534;18.700;2024-02-04T14:19:19;17.10;1.00
25512;DHT22;13414;44.534;18.700;2024-02-04T14:21:47;17.00;1.00
25512;DHT22;13414;44.534;18.700;2024-02-04T14:24:14;16.90;1.00
25512;DHT22;13414;44.534;18.700;2024-02-04T14:26:42;16.80;1.00
25512;DHT22;13414;44.534;18.700;2024-02-04T14:29:09;16.70;1.00
25512;DHT22;13414;44.534;18.700;2024-02-04T14:31:38;16.60;1.00
25512;DHT22;13414;44.534;18.700;2024-02-04T14:34:06;16.50;1.00
25512;DHT22;13414;44.534;18.700;2024-02-04T14:36:33;16.50;1.00
25512;DHT22;13414;44.534;18.700;2024-02-04T14:39:01;16.40;1.00
25512;DHT22;13414;44.534;18.700;2024-02-04T14:41:31;16.30;1.00
25512;DHT22;13414;44.534;18.700;2024-02-04T14:43:58;16.20;1.00
25512;DHT22;13414;44.534;18.700;2024-02-04T14:46:26;16.10;1.00
25512;DHT22;13414;44.534;18.700;2024-02-04T14:48:55;16.10;1.00
25512;DHT22;13414;44.534;18.700;2024-02-04T14:51:22;16.00;1.00
25512;DHT22;13414;44.534;18.700;2024-02-04T14:53:53;15.90;1.00
25512;DHT22;13414;44.534;18.700;2024-02-04T14:56:21;15.90;1.00
25512;DHT22;13414;44.534;18.700;2024-02-04T14:58:49;15.90;1.00
25512;DHT22;13414;44.534;18.700;2024-02-04T15:01:17;15.80;1.00
25512;DHT22;13414;44.534;18.700;2024-02-04T15:03:48;15.80;1.00
25512;DHT22;13414;44.534;18.700;2024-02-04T15:06:17;15.70;1.00
25512;DHT22;13414;44.534;18.700;2024-02-04T15:08:46;15.70;1.00
25512;DHT22;13414;44.534;18.700;2024-02-04T15:11:17;15.60;1.00
25512;DHT22;13414;44.534;18.700;2024-02-04T15:13:46;15.50;1.00
25512;DHT22;13414;44.534;18.700;2024-02-04T15:16:17;15.40;1.00
25512;DHT22;13414;44.534;18.700;2024-02-04T15:18:47;15.30;1.00
25512;DHT22;13414;44.534;18.700;2024-02-04T15:21:21;15.20;1.00
25512;DHT22;13414;44.534;18.700;2024-02-04T15:23:54;15.10;1.00
25512;DHT22;13414;44.534;18.700;2024-02-04T15:26:22;15.00;1.00
25512;DHT22;13414;44.534;18.700;2024-02-04T15:28:50;14.80;1.00
25512;DHT22;13414;44.534;18.700;2024-02-04T15:31:22;14.70;1.00
25512;DHT22;13414;44.534;18.700;2024-02-04T15:33:53;14.60;1.00
25512;DHT22;13414;44.534;18.700;2024-02-04T15:36:26;14.50;1.00
25512;DHT22;13414;44.534;18.700;2024-02-04T15:38:53;14.50;1.00
25512;DHT22;13414;44.534;18.700;2024-02-04T15:41:21;14.60;1.00
25512;DHT22;13414;44.534;18.700;2024-02-04T15:43:49;14.40;1.00
25512;DHT22;13414;44.534;18.700;2024-02-04T15:46:18;14.10;1.00
25512;DHT22;13414;44.534;18.700;2024-02-04T15:48:46;13.90;1.00
25512;DHT22;13414;44.534;18.700;2024-02-04T15:51:19;13.70;1.00
25512;DHT22;13414;44.534;18.700;2024-02-04T15:53:49;13.50;1.00